sensor_id;sensor_type;location;lat;lon;timestamp;P1;durP1;ratioP1;P2;durP2;ratioP2
51459;SDS011;37534;39.772;2.718;2023-11-19T00:02:13;6.03;;;2.97;;
51459;SDS011;37534;39.772;2.718;2023-11-19T00:04:39;5.50;;;4.97;;
51459;SDS011;37534;39.772;2.718;2023-11-19T00:07:05;5.05;;;4.65;;
51459;SDS011;37534;39.772;2.718;2023-11-19T00:09:32;3.75;;;3.25;;
51459;SDS011;37534;39.772;2.718;2023-11-19T00:11:58;5.15;;;4.15;;
51459;SDS011;37534;39.772;2.718;2023-11-19T00:14:25;6.60;;;3.20;;
51459;SDS011;37534;39.772;2.718;2023-11-19T00:16:51;3.20;;;3.00;;
51459;SDS011;37534;39.772;2.718;2023-11-19T00:19:18;2.55;;;2.38;;
51459;SDS011;37534;39.772;2.718;2023-11-19T00:21:44;3.92;;;2.72;;
51459;SDS011;37534;39.772;2.718;2023-11-19T00:24:10;3.97;;;2.70;;
51459;SDS011;37534;39.772;2.718;2023-11-19T00:26:37;3.42;;;2.95;;
51459;SDS011;37534;39.772;2.718;2023-11-19T00:29:03;3.05;;;2.35;;
51459;SDS011;37534;39.772;2.718;2023-11-19T00:31:29;2.55;;;2.38;;
51459;SDS011;37534;39.772;2.718;2023-11-19T00:33:54;4.25;;;2.30;;
51459;SDS011;37534;39.772;2.718;2023-11-19T00:36:20;2.03;;;1.92;;
51459;SDS011;37534;39.772;2.718;2023-11-19T00:38:46;3.22;;;2.80;;
51459;SDS011;37534;39.772;2.718;2023-11-19T00:41:11;2.97;;;2.08;;
51459;SDS011;37534;39.772;2.718;2023-11-19T00:43:37;4.28;;;2.75;;
51459;SDS011;37534;39.772;2.718;2023-11-19T00:46:03;2.85;;;2.60;;
51459;SDS011;37534;39.772;2.718;2023-11-19T00:48:32;6.18;;;3.03;;
51459;SDS011;37534;39.772;2.718;2023-11-19T00:50:57;3.60;;;2.85;;
51459;SDS011;37534;39.772;2.718;2023-11-19T00:53:23;8.90;;;2.95;;
51459;SDS011;37534;39.772;2.718;2023-11-19T00:55:48;5.70;;;3.97;;
51459;SDS011;37534;39.772;2.718;2023-11-19T00:58:14;4.05;;;2.92;;
51459;SDS011;37534;39.772;2.718;2023-11-19T01:00:39;13.20;;;3.97;;
51459;SDS011;37534;39.772;2.718;2023-11-19T01:03:05;2.45;;;2.22;;
51459;SDS011;37534;39.772;2.718;2023-11-19T01:05:32;3.20;;;2.83;;
51459;SDS011;37534;39.772;2.718;2023-11-19T01:07:58;2.25;;;2.05;;
51459;SDS011;37534;39.772;2.718;2023-11-19T01:10:23;3.88;;;2.22;;
51459;SDS011;37534;39.772;2.718;2023-11-19T01:12:50;3.13;;;2.83;;
51459;SDS011;37534;39.772;2.718;2023-11-19T01:15:17;3.58;;;2.50;;
51459;SDS011;37534;39.772;2.718;2023-11-19T01:17:44;2.50;;;2.30;;
51459;SDS011;37534;39.772;2.718;2023-11-19T01:20:10;3.25;;;2.63;;
51459;SDS011;37534;39.772;2.718;2023-11-19T01:22:38;4.50;;;3.72;;
51459;SDS011;37534;39.772;2.718;2023-11-19T01:25:04;4.43;;;4.13;;
51459;SDS011;37534;39.772;2.718;2023-11-19T01:27:33;5.53;;;4.85;;
51459;SDS011;37534;39.772;2.718;2023-11-19T01:30:00;4.15;;;3.85;;
51459;SDS011;37534;39.772;2.718;2023-11-19T01:32:31;7.17;;;5.60;;
51459;SDS011;37534;39.772;2.718;2023-11-19T01:34:56;5.38;;;4.82;;
51459;SDS011;37534;39.772;2.718;2023-11-19T01:37:22;3.70;;;3.40;;
51459;SDS011;37534;39.772;2.718;2023-11-19T01:39:51;4.13;;;3.38;;
51459;SDS011;37534;39.772;2.718;2023-11-19T01:42:16;4.03;;;3.67;;
51459;SDS011;37534;39.772;2.718;2023-11-19T01:44:42;7.45;;;4.10;;
51459;SDS011;37534;39.772;2.718;2023-11-19T01:47:19;4.85;;;4.40;;
51459;SDS011;37534;39.772;2.718;2023-11-19T01:49:45;6.68;;;5.00;;
51459;SDS011;37534;39.772;2.718;2023-11-19T01:52:10;7.60;;;6.85;;
51459;SDS011;37534;39.772;2.718;2023-11-19T01:54:39;8.25;;;6.00;;
51459;SDS011;37534;39.772;2.718;2023-11-19T01:57:04;6.63;;;4.88;;
51459;SDS011;37534;39.772;2.718;2023-11-19T01:59:31;10.63;;;7.95;;
51459;SDS011;37534;39.772;2.718;2023-11-19T02:01:56;10.82;;;7.72;;
51459;SDS011;37534;39.772;2.718;2023-11-19T02:04:23;10.75;;;7.20;;
51459;SDS011;37534;39.772;2.718;2023-11-19T02:06:49;6.72;;;6.03;;
51459;SDS011;37534;39.772;2.718;2023-11-19T02:09:19;4.70;;;4.30;;
51459;SDS011;37534;39.772;2.718;2023-11-19T02:11:45;3.75;;;3.45;;
51459;SDS011;37534;39.772;2.718;2023-11-19T02:14:15;4.38;;;3.97;;
51459;SDS011;37534;39.772;2.718;2023-11-19T02:16:40;4.20;;;3.55;;
51459;SDS011;37534;39.772;2.718;2023-11-19T02:19:07;6.38;;;4.45;;
51459;SDS011;37534;39.772;2.718;2023-11-19T02:21:35;8.40;;;5.43;;
51459;SDS011;37534;39.772;2.718;2023-11-19T02:24:02;7.75;;;4.35;;
51459;SDS011;37534;39.772;2.718;2023-11-19T02:26:37;7.40;;;3.88;;
51459;SDS011;37534;39.772;2.718;2023-11-19T02:29:08;5.43;;;3.83;;
51459;SDS011;37534;39.772;2.718;2023-11-19T02:31:34;4.70;;;3.65;;
51459;SDS011;37534;39.772;2.718;2023-11-19T02:34:00;4.88;;;3.78;;
51459;SDS011;37534;39.772;2.718;2023-11-19T02:36:27;8.77;;;3.58;;
51459;SDS011;37534;39.772;2.718;2023-11-19T02:38:53;4.68;;;3.60;;
51459;SDS011;37534;39.772;2.718;2023-11-19T02:41:18;7.18;;;3.47;;
51459;SDS011;37534;39.772;2.718;2023-11-19T02:43:44;6.18;;;3.17;;
51459;SDS011;37534;39.772;2.718;2023-11-19T02:46:09;4.38;;;3.40;;
51459;SDS011;37534;39.772;2.718;2023-11-19T02:48:36;4.25;;;3.13;;
51459;SDS011;37534;39.772;2.718;2023-11-19T02:51:03;4.82;;;2.60;;
51459;SDS011;37534;39.772;2.718;2023-11-19T02:53:30;5.57;;;3.30;;
51459;SDS011;37534;39.772;2.718;2023-11-19T02:55:57;6.18;;;3.92;;
51459;SDS011;37534;39.772;2.718;2023-11-19T02:58:42;4.50;;;3.33;;
51459;SDS011;37534;39.772;2.718;2023-11-19T03:01:09;5.43;;;2.95;;
51459;SDS011;37534;39.772;2.718;2023-11-19T03:03:44;7.00;;;4.10;;
51459;SDS011;37534;39.772;2.718;2023-11-19T03:06:14;5.50;;;4.50;;
51459;SDS011;37534;39.772;2.718;2023-11-19T03:08:39;4.63;;;3.58;;
51459;SDS011;37534;39.772;2.718;2023-11-19T03:11:05;3.60;;;3.30;;
51459;SDS011;37534;39.772;2.718;2023-11-19T03:13:30;3.22;;;2.92;;
51459;SDS011;37534;39.772;2.718;2023-11-19T03:15:56;2.80;;;2.60;;
51459;SDS011;37534;39.772;2.718;2023-11-19T03:18:21;4.95;;;2.95;;
51459;SDS011;37534;39.772;2.718;2023-11-19T03:20:47;4.90;;;3.33;;
51459;SDS011;37534;39.772;2.718;2023-11-19T03:23:13;3.40;;;2.22;;
51459;SDS011;37534;39.772;2.718;2023-11-19T03:25:38;3.55;;;2.35;;
51459;SDS011;37534;39.772;2.718;2023-11-19T03:28:04;2.53;;;2.38;;
51459;SDS011;37534;39.772;2.718;2023-11-19T03:30:29;1.88;;;1.77;;
51459;SDS011;37534;39.772;2.718;2023-11-19T03:32:58;2.85;;;2.08;;
51459;SDS011;37534;39.772;2.718;2023-11-19T03:35:26;1.58;;;1.40;;
51459;SDS011;37534;39.772;2.718;2023-11-19T03:37:53;2.72;;;2.45;;
51459;SDS011;37534;39.772;2.718;2023-11-19T03:40:19;1.85;;;1.75;;
51459;SDS011;37534;39.772;2.718;2023-11-19T03:42:45;15.30;;;2.42;;
51459;SDS011;37534;39.772;2.718;2023-11-19T03:45:11;2.08;;;1.98;;
51459;SDS011;37534;39.772;2.718;2023-11-19T03:47:37;2.28;;;2.08;;
51459;SDS011;37534;39.772;2.718;2023-11-19T03:50:03;1.88;;;1.67;;
51459;SDS011;37534;39.772;2.718;2023-11-19T03:52:29;1.92;;;1.65;;
51459;SDS011;37534;39.772;2.718;2023-11-19T03:54:55;1.48;;;1.38;;
51459;SDS011;37534;39.772;2.718;2023-11-19T03:57:22;1.38;;;1.30;;
51459;SDS011;37534;39.772;2.718;2023-11-19T03:59:51;1.65;;;1.55;;
51459;SDS011;37534;39.772;2.718;2023-11-19T04:02:17;1.40;;;1.30;;
51459;SDS011;37534;39.772;2.718;2023-11-19T04:04:42;1.30;;;1.17;;
51459;SDS011;37534;39.772;2.718;2023-11-19T04:07:08;1.20;;;1.20;;
51459;SDS011;37534;39.772;2.718;2023-11-19T04:09:34;2.38;;;1.38;;
51459;SDS011;37534;39.772;2.718;2023-11-19T04:12:02;1.75;;;1.38;;
51459;SDS011;37534;39.772;2.718;2023-11-19T04:14:27;2.35;;;1.25;;
51459;SDS011;37534;39.772;2.718;2023-11-19T04:16:53;1.23;;;1.23;;
51459;SDS011;37534;39.772;2.718;2023-11-19T04:19:19;1.98;;;1.88;;
51459;SDS011;37534;39.772;2.718;2023-11-19T04:21:45;1.95;;;1.73;;
51459;SDS011;37534;39.772;2.718;2023-11-19T04:24:11;1.58;;;1.48;;
51459;SDS011;37534;39.772;2.718;2023-11-19T04:26:43;1.70;;;1.48;;
51459;SDS011;37534;39.772;2.718;2023-11-19T04:29:13;1.40;;;1.30;;
51459;SDS011;37534;39.772;2.718;2023-11-19T04:31:40;1.80;;;1.40;;
51459;SDS011;37534;39.772;2.718;2023-11-19T04:34:09;2.95;;;1.67;;
51459;SDS011;37534;39.772;2.718;2023-11-19T04:36:34;1.60;;;1.50;;
51459;SDS011;37534;39.772;2.718;2023-11-19T04:39:00;1.63;;;1.52;;
51459;SDS011;37534;39.772;2.718;2023-11-19T04:41:26;3.03;;;2.00;;
51459;SDS011;37534;39.772;2.718;2023-11-19T04:43:55;1.30;;;1.20;;
51459;SDS011;37534;39.772;2.718;2023-11-19T04:46:20;1.65;;;1.40;;
51459;SDS011;37534;39.772;2.718;2023-11-19T04:48:46;2.22;;;1.65;;
51459;SDS011;37534;39.772;2.718;2023-11-19T04:51:11;10.73;;;2.15;;
51459;SDS011;37534;39.772;2.718;2023-11-19T04:53:37;2.03;;;1.48;;
51459;SDS011;37534;39.772;2.718;2023-11-19T04:56:09;1.65;;;1.30;;
51459;SDS011;37534;39.772;2.718;2023-11-19T04:58:35;1.50;;;1.40;;
51459;SDS011;37534;39.772;2.718;2023-11-19T05:01:02;1.70;;;1.60;;
51459;SDS011;37534;39.772;2.718;2023-11-19T05:03:28;2.35;;;1.40;;
51459;SDS011;37534;39.772;2.718;2023-11-19T05:05:54;3.53;;;1.63;;
51459;SDS011;37534;39.772;2.718;2023-11-19T05:08:19;2.08;;;1.70;;
51459;SDS011;37534;39.772;2.718;2023-11-19T05:10:45;2.92;;;1.45;;
51459;SDS011;37534;39.772;2.718;2023-11-19T05:13:10;1.75;;;1.65;;
51459;SDS011;37534;39.772;2.718;2023-11-19T05:15:37;1.73;;;1.63;;
51459;SDS011;37534;39.772;2.718;2023-11-19T05:18:03;1.70;;;1.60;;
51459;SDS011;37534;39.772;2.718;2023-11-19T05:20:29;1.60;;;1.50;;
51459;SDS011;37534;39.772;2.718;2023-11-19T05:22:55;2.25;;;1.70;;
51459;SDS011;37534;39.772;2.718;2023-11-19T05:25:21;1.73;;;1.60;;
51459;SDS011;37534;39.772;2.718;2023-11-19T05:27:46;1.55;;;1.45;;
51459;SDS011;37534;39.772;2.718;2023-11-19T05:30:12;1.13;;;1.13;;
51459;SDS011;37534;39.772;2.718;2023-11-19T05:32:38;1.73;;;1.55;;
51459;SDS011;37534;39.772;2.718;2023-11-19T05:35:03;2.17;;;1.73;;
51459;SDS011;37534;39.772;2.718;2023-11-19T05:37:29;2.42;;;1.65;;
51459;SDS011;37534;39.772;2.718;2023-11-19T05:39:55;1.35;;;1.25;;
51459;SDS011;37534;39.772;2.718;2023-11-19T05:42:20;1.30;;;1.30;;
51459;SDS011;37534;39.772;2.718;2023-11-19T05:44:49;1.67;;;1.58;;
51459;SDS011;37534;39.772;2.718;2023-11-19T05:47:14;2.53;;;1.90;;
51459;SDS011;37534;39.772;2.718;2023-11-19T05:49:40;2.25;;;2.05;;
51459;SDS011;37534;39.772;2.718;2023-11-19T05:52:06;1.50;;;1.40;;
51459;SDS011;37534;39.772;2.718;2023-11-19T05:54:32;3.72;;;1.90;;
51459;SDS011;37534;39.772;2.718;2023-11-19T05:57:03;1.40;;;1.38;;
51459;SDS011;37534;39.772;2.718;2023-11-19T05:59:34;2.25;;;1.88;;
51459;SDS011;37534;39.772;2.718;2023-11-19T06:02:01;1.27;;;1.17;;
51459;SDS011;37534;39.772;2.718;2023-11-19T06:04:30;1.58;;;1.48;;
51459;SDS011;37534;39.772;2.718;2023-11-19T06:06:56;2.00;;;1.75;;
51459;SDS011;37534;39.772;2.718;2023-11-19T06:09:23;1.65;;;1.55;;
51459;SDS011;37534;39.772;2.718;2023-11-19T06:11:50;1.25;;;1.15;;
51459;SDS011;37534;39.772;2.718;2023-11-19T06:14:16;2.88;;;1.33;;
51459;SDS011;37534;39.772;2.718;2023-11-19T06:16:42;1.77;;;1.48;;
51459;SDS011;37534;39.772;2.718;2023-11-19T06:19:07;1.23;;;1.13;;
51459;SDS011;37534;39.772;2.718;2023-11-19T06:21:33;1.80;;;1.70;;
51459;SDS011;37534;39.772;2.718;2023-11-19T06:24:02;5.05;;;1.88;;
51459;SDS011;37534;39.772;2.718;2023-11-19T06:26:29;1.38;;;1.27;;
51459;SDS011;37534;39.772;2.718;2023-11-19T06:28:55;1.77;;;1.67;;
51459;SDS011;37534;39.772;2.718;2023-11-19T06:31:20;1.70;;;1.60;;
51459;SDS011;37534;39.772;2.718;2023-11-19T06:33:46;2.47;;;2.25;;
51459;SDS011;37534;39.772;2.718;2023-11-19T06:36:14;2.42;;;2.28;;
51459;SDS011;37534;39.772;2.718;2023-11-19T06:38:41;6.18;;;3.38;;
51459;SDS011;37534;39.772;2.718;2023-11-19T06:41:07;4.25;;;3.95;;
51459;SDS011;37534;39.772;2.718;2023-11-19T06:43:34;4.68;;;3.67;;
51459;SDS011;37534;39.772;2.718;2023-11-19T06:45:59;4.13;;;3.83;;
51459;SDS011;37534;39.772;2.718;2023-11-19T06:48:25;12.98;;;5.40;;
51459;SDS011;37534;39.772;2.718;2023-11-19T06:50:51;5.20;;;3.47;;
51459;SDS011;37534;39.772;2.718;2023-11-19T06:53:16;3.20;;;2.80;;
51459;SDS011;37534;39.772;2.718;2023-11-19T06:55:41;3.60;;;3.30;;
51459;SDS011;37534;39.772;2.718;2023-11-19T06:58:07;3.08;;;2.88;;
51459;SDS011;37534;39.772;2.718;2023-11-19T07:00:32;9.20;;;3.90;;
51459;SDS011;37534;39.772;2.718;2023-11-19T07:02:59;3.95;;;3.03;;
51459;SDS011;37534;39.772;2.718;2023-11-19T07:05:25;3.30;;;3.00;;
51459;SDS011;37534;39.772;2.718;2023-11-19T07:07:53;2.83;;;2.65;;
51459;SDS011;37534;39.772;2.718;2023-11-19T07:10:19;6.13;;;4.40;;
51459;SDS011;37534;39.772;2.718;2023-11-19T07:12:45;3.80;;;3.30;;
51459;SDS011;37534;39.772;2.718;2023-11-19T07:15:14;5.72;;;3.20;;
51459;SDS011;37534;39.772;2.718;2023-11-19T07:17:42;4.13;;;3.75;;
51459;SDS011;37534;39.772;2.718;2023-11-19T07:20:10;5.20;;;4.07;;
51459;SDS011;37534;39.772;2.718;2023-11-19T07:22:41;3.90;;;3.50;;
51459;SDS011;37534;39.772;2.718;2023-11-19T07:25:08;4.20;;;3.70;;
51459;SDS011;37534;39.772;2.718;2023-11-19T07:27:34;6.25;;;3.92;;
51459;SDS011;37534;39.772;2.718;2023-11-19T07:29:59;3.08;;;2.78;;
51459;SDS011;37534;39.772;2.718;2023-11-19T07:32:25;4.20;;;3.53;;
51459;SDS011;37534;39.772;2.718;2023-11-19T07:34:50;5.88;;;3.28;;
51459;SDS011;37534;39.772;2.718;2023-11-19T07:37:16;3.15;;;2.88;;
51459;SDS011;37534;39.772;2.718;2023-11-19T07:39:42;3.80;;;2.75;;
51459;SDS011;37534;39.772;2.718;2023-11-19T07:42:07;2.25;;;2.05;;
51459;SDS011;37534;39.772;2.718;2023-11-19T07:44:34;2.35;;;2.15;;
51459;SDS011;37534;39.772;2.718;2023-11-19T07:46:59;5.13;;;2.40;;
51459;SDS011;37534;39.772;2.718;2023-11-19T07:49:25;2.33;;;2.10;;
51459;SDS011;37534;39.772;2.718;2023-11-19T07:51:51;4.32;;;2.80;;
51459;SDS011;37534;39.772;2.718;2023-11-19T07:54:19;4.93;;;2.42;;
51459;SDS011;37534;39.772;2.718;2023-11-19T07:56:46;3.85;;;2.03;;
51459;SDS011;37534;39.772;2.718;2023-11-19T07:59:12;2.63;;;2.42;;
51459;SDS011;37534;39.772;2.718;2023-11-19T08:01:37;3.30;;;2.75;;
51459;SDS011;37534;39.772;2.718;2023-11-19T08:04:03;2.67;;;2.45;;
51459;SDS011;37534;39.772;2.718;2023-11-19T08:06:31;3.15;;;2.85;;
51459;SDS011;37534;39.772;2.718;2023-11-19T08:08:57;3.28;;;2.90;;
51459;SDS011;37534;39.772;2.718;2023-11-19T08:11:22;8.63;;;6.95;;
51459;SDS011;37534;39.772;2.718;2023-11-19T08:13:48;5.07;;;4.10;;
51459;SDS011;37534;39.772;2.718;2023-11-19T08:16:14;3.53;;;2.30;;
51459;SDS011;37534;39.772;2.718;2023-11-19T08:18:43;3.05;;;2.80;;
51459;SDS011;37534;39.772;2.718;2023-11-19T08:21:08;3.33;;;2.60;;
51459;SDS011;37534;39.772;2.718;2023-11-19T08:23:34;8.88;;;3.97;;
51459;SDS011;37534;39.772;2.718;2023-11-19T08:26:00;6.68;;;5.20;;
51459;SDS011;37534;39.772;2.718;2023-11-19T08:28:26;5.10;;;3.53;;
51459;SDS011;37534;39.772;2.718;2023-11-19T08:30:52;5.57;;;3.35;;
51459;SDS011;37534;39.772;2.718;2023-11-19T08:33:18;5.68;;;3.70;;
51459;SDS011;37534;39.772;2.718;2023-11-19T08:35:43;23.65;;;4.75;;
51459;SDS011;37534;39.772;2.718;2023-11-19T08:38:10;3.58;;;2.78;;
51459;SDS011;37534;39.772;2.718;2023-11-19T08:40:36;5.35;;;4.85;;
51459;SDS011;37534;39.772;2.718;2023-11-19T08:43:02;4.18;;;3.78;;
51459;SDS011;37534;39.772;2.718;2023-11-19T08:45:27;6.57;;;4.50;;
51459;SDS011;37534;39.772;2.718;2023-11-19T08:47:53;6.95;;;5.82;;
51459;SDS011;37534;39.772;2.718;2023-11-19T08:50:18;9.75;;;6.95;;
51459;SDS011;37534;39.772;2.718;2023-11-19T08:52:44;13.10;;;6.47;;
51459;SDS011;37534;39.772;2.718;2023-11-19T08:55:09;10.52;;;5.18;;
51459;SDS011;37534;39.772;2.718;2023-11-19T08:57:36;6.15;;;5.03;;
51459;SDS011;37534;39.772;2.718;2023-11-19T09:00:02;8.52;;;4.97;;
51459;SDS011;37534;39.772;2.718;2023-11-19T09:02:32;9.18;;;5.10;;
51459;SDS011;37534;39.772;2.718;2023-11-19T09:04:58;6.35;;;5.75;;
51459;SDS011;37534;39.772;2.718;2023-11-19T09:07:24;8.77;;;7.05;;
51459;SDS011;37534;39.772;2.718;2023-11-19T09:09:49;30.20;;;20.90;;
51459;SDS011;37534;39.772;2.718;2023-11-19T09:12:15;54.63;;;40.90;;
51459;SDS011;37534;39.772;2.718;2023-11-19T09:14:43;38.85;;;28.33;;
51459;SDS011;37534;39.772;2.718;2023-11-19T09:17:11;29.20;;;20.88;;
51459;SDS011;37534;39.772;2.718;2023-11-19T09:19:37;24.98;;;17.90;;
51459;SDS011;37534;39.772;2.718;2023-11-19T09:22:02;19.05;;;11.85;;
51459;SDS011;37534;39.772;2.718;2023-11-19T09:24:28;11.10;;;8.80;;
51459;SDS011;37534;39.772;2.718;2023-11-19T09:26:54;10.57;;;9.48;;
51459;SDS011;37534;39.772;2.718;2023-11-19T09:29:21;11.23;;;8.80;;
51459;SDS011;37534;39.772;2.718;2023-11-19T09:31:47;11.00;;;8.10;;
51459;SDS011;37534;39.772;2.718;2023-11-19T09:34:12;10.48;;;8.20;;
51459;SDS011;37534;39.772;2.718;2023-11-19T09:36:38;18.00;;;11.50;;
51459;SDS011;37534;39.772;2.718;2023-11-19T09:39:08;13.93;;;11.33;;
51459;SDS011;37534;39.772;2.718;2023-11-19T09:41:34;15.90;;;11.52;;
51459;SDS011;37534;39.772;2.718;2023-11-19T09:44:00;19.27;;;14.63;;
51459;SDS011;37534;39.772;2.718;2023-11-19T09:46:25;12.55;;;11.23;;
51459;SDS011;37534;39.772;2.718;2023-11-19T09:48:52;15.10;;;12.75;;
51459;SDS011;37534;39.772;2.718;2023-11-19T09:51:19;29.08;;;18.52;;
51459;SDS011;37534;39.772;2.718;2023-11-19T09:53:45;36.53;;;24.70;;
51459;SDS011;37534;39.772;2.718;2023-11-19T09:56:11;28.73;;;22.45;;
51459;SDS011;37534;39.772;2.718;2023-11-19T09:58:37;32.95;;;22.55;;
51459;SDS011;37534;39.772;2.718;2023-11-19T10:01:03;31.38;;;22.98;;
51459;SDS011;37534;39.772;2.718;2023-11-19T10:03:32;29.40;;;23.08;;
51459;SDS011;37534;39.772;2.718;2023-11-19T10:06:08;22.38;;;15.15;;
51459;SDS011;37534;39.772;2.718;2023-11-19T10:08:39;14.40;;;12.43;;
51459;SDS011;37534;39.772;2.718;2023-11-19T10:11:05;13.80;;;9.77;;
51459;SDS011;37534;39.772;2.718;2023-11-19T10:13:31;7.75;;;6.82;;
51459;SDS011;37534;39.772;2.718;2023-11-19T10:16:12;10.93;;;6.38;;
51459;SDS011;37534;39.772;2.718;2023-11-19T10:18:42;7.05;;;6.35;;
51459;SDS011;37534;39.772;2.718;2023-11-19T10:21:18;4.68;;;4.28;;
51459;SDS011;37534;39.772;2.718;2023-11-19T10:23:51;4.80;;;3.80;;
51459;SDS011;37534;39.772;2.718;2023-11-19T10:26:22;4.07;;;3.70;;
51459;SDS011;37534;39.772;2.718;2023-11-19T10:28:48;4.13;;;3.70;;
51459;SDS011;37534;39.772;2.718;2023-11-19T10:31:17;4.88;;;2.70;;
51459;SDS011;37534;39.772;2.718;2023-11-19T10:33:44;3.17;;;2.90;;
51459;SDS011;37534;39.772;2.718;2023-11-19T10:36:13;3.58;;;3.28;;
51459;SDS011;37534;39.772;2.718;2023-11-19T10:38:40;2.83;;;2.60;;
51459;SDS011;37534;39.772;2.718;2023-11-19T10:41:06;3.75;;;3.38;;
51459;SDS011;37534;39.772;2.718;2023-11-19T10:43:42;2.67;;;2.47;;
51459;SDS011;37534;39.772;2.718;2023-11-19T10:46:10;5.32;;;3.75;;
51459;SDS011;37534;39.772;2.718;2023-11-19T10:48:37;7.68;;;2.85;;
51459;SDS011;37534;39.772;2.718;2023-11-19T10:51:04;3.17;;;2.90;;
51459;SDS011;37534;39.772;2.718;2023-11-19T10:53:36;4.20;;;3.10;;
51459;SDS011;37534;39.772;2.718;2023-11-19T10:56:06;4.28;;;3.33;;
51459;SDS011;37534;39.772;2.718;2023-11-19T10:58:36;8.70;;;3.03;;
51459;SDS011;37534;39.772;2.718;2023-11-19T11:01:07;3.53;;;2.83;;
51459;SDS011;37534;39.772;2.718;2023-11-19T11:03:39;6.13;;;4.80;;
51459;SDS011;37534;39.772;2.718;2023-11-19T11:06:05;4.38;;;4.00;;
51459;SDS011;37534;39.772;2.718;2023-11-19T11:08:31;3.20;;;3.00;;
51459;SDS011;37534;39.772;2.718;2023-11-19T11:11:01;7.70;;;4.63;;
51459;SDS011;37534;39.772;2.718;2023-11-19T11:13:29;4.35;;;3.92;;
51459;SDS011;37534;39.772;2.718;2023-11-19T11:15:56;4.72;;;4.32;;
51459;SDS011;37534;39.772;2.718;2023-11-19T11:18:23;5.53;;;4.53;;
51459;SDS011;37534;39.772;2.718;2023-11-19T11:21:25;4.40;;;4.03;;
51459;SDS011;37534;39.772;2.718;2023-11-19T11:23:54;8.43;;;4.10;;
51459;SDS011;37534;39.772;2.718;2023-11-19T11:29:39;5.75;;;4.22;;
51459;SDS011;37534;39.772;2.718;2023-11-19T11:35:19;6.32;;;5.00;;
51459;SDS011;37534;39.772;2.718;2023-11-19T11:38:03;6.97;;;4.13;;
51459;SDS011;37534;39.772;2.718;2023-11-19T11:40:32;5.78;;;3.85;;
51459;SDS011;37534;39.772;2.718;2023-11-19T11:42:58;7.80;;;4.13;;
51459;SDS011;37534;39.772;2.718;2023-11-19T11:45:36;7.40;;;3.45;;
51459;SDS011;37534;39.772;2.718;2023-11-19T11:48:16;5.40;;;3.60;;
51459;SDS011;37534;39.772;2.718;2023-11-19T11:50:52;7.35;;;3.80;;
51459;SDS011;37534;39.772;2.718;2023-11-19T11:53:19;7.45;;;3.80;;
51459;SDS011;37534;39.772;2.718;2023-11-19T11:58:13;7.38;;;6.68;;
51459;SDS011;37534;39.772;2.718;2023-11-19T12:00:43;9.13;;;4.10;;
51459;SDS011;37534;39.772;2.718;2023-11-19T12:03:08;3.60;;;2.38;;
51459;SDS011;37534;39.772;2.718;2023-11-19T12:05:43;2.10;;;1.90;;
51459;SDS011;37534;39.772;2.718;2023-11-19T12:08:10;1.15;;;1.05;;
51459;SDS011;37534;39.772;2.718;2023-11-19T12:10:46;1.25;;;1.15;;
51459;SDS011;37534;39.772;2.718;2023-11-19T12:13:17;1.90;;;1.33;;
51459;SDS011;37534;39.772;2.718;2023-11-19T12:16:06;2.08;;;1.52;;
51459;SDS011;37534;39.772;2.718;2023-11-19T12:18:32;1.65;;;1.55;;
51459;SDS011;37534;39.772;2.718;2023-11-19T12:20:58;2.33;;;1.25;;
51459;SDS011;37534;39.772;2.718;2023-11-19T12:23:31;0.98;;;0.75;;
51459;SDS011;37534;39.772;2.718;2023-11-19T12:25:57;4.10;;;1.10;;
51459;SDS011;37534;39.772;2.718;2023-11-19T12:28:24;1.17;;;1.00;;
51459;SDS011;37534;39.772;2.718;2023-11-19T12:30:52;2.47;;;1.20;;
51459;SDS011;37534;39.772;2.718;2023-11-19T12:33:18;2.22;;;1.58;;
51459;SDS011;37534;39.772;2.718;2023-11-19T12:35:45;1.00;;;0.90;;
51459;SDS011;37534;39.772;2.718;2023-11-19T12:40:46;3.60;;;1.95;;
51459;SDS011;37534;39.772;2.718;2023-11-19T12:43:13;1.42;;;0.80;;
51459;SDS011;37534;39.772;2.718;2023-11-19T12:45:47;1.08;;;0.98;;
51459;SDS011;37534;39.772;2.718;2023-11-19T12:48:13;1.23;;;0.88;;
51459;SDS011;37534;39.772;2.718;2023-11-19T12:50:54;1.60;;;1.50;;
51459;SDS011;37534;39.772;2.718;2023-11-19T12:53:26;3.05;;;2.17;;
51459;SDS011;37534;39.772;2.718;2023-11-19T12:55:53;2.35;;;1.30;;
51459;SDS011;37534;39.772;2.718;2023-11-19T12:58:35;1.80;;;1.40;;
51459;SDS011;37534;39.772;2.718;2023-11-19T13:01:07;1.67;;;1.40;;
51459;SDS011;37534;39.772;2.718;2023-11-19T13:03:38;2.92;;;0.70;;
51459;SDS011;37534;39.772;2.718;2023-11-19T13:06:07;3.28;;;1.17;;
51459;SDS011;37534;39.772;2.718;2023-11-19T13:08:45;1.75;;;1.52;;
51459;SDS011;37534;39.772;2.718;2023-11-19T13:11:14;5.82;;;1.77;;
51459;SDS011;37534;39.772;2.718;2023-11-19T13:13:55;4.63;;;1.45;;
51459;SDS011;37534;39.772;2.718;2023-11-19T13:16:21;1.45;;;1.10;;
51459;SDS011;37534;39.772;2.718;2023-11-19T13:18:47;1.40;;;1.17;;
51459;SDS011;37534;39.772;2.718;2023-11-19T13:21:12;1.67;;;1.00;;
51459;SDS011;37534;39.772;2.718;2023-11-19T13:23:38;1.73;;;1.25;;
51459;SDS011;37534;39.772;2.718;2023-11-19T13:26:04;2.85;;;1.15;;
51459;SDS011;37534;39.772;2.718;2023-11-19T13:28:29;1.33;;;1.20;;
51459;SDS011;37534;39.772;2.718;2023-11-19T13:30:55;6.10;;;1.95;;
51459;SDS011;37534;39.772;2.718;2023-11-19T13:33:21;1.65;;;1.10;;
51459;SDS011;37534;39.772;2.718;2023-11-19T13:35:46;2.95;;;1.20;;
51459;SDS011;37534;39.772;2.718;2023-11-19T13:38:12;1.98;;;1.30;;
51459;SDS011;37534;39.772;2.718;2023-11-19T13:40:37;2.40;;;1.38;;
51459;SDS011;37534;39.772;2.718;2023-11-19T13:43:04;1.45;;;1.27;;
51459;SDS011;37534;39.772;2.718;2023-11-19T13:45:30;3.13;;;1.38;;
51459;SDS011;37534;39.772;2.718;2023-11-19T13:47:55;3.47;;;1.90;;
51459;SDS011;37534;39.772;2.718;2023-11-19T13:50:21;4.82;;;1.73;;
51459;SDS011;37534;39.772;2.718;2023-11-19T13:52:47;1.67;;;1.27;;
51459;SDS011;37534;39.772;2.718;2023-11-19T13:55:13;2.70;;;1.45;;
51459;SDS011;37534;39.772;2.718;2023-11-19T13:57:39;2.20;;;1.25;;
51459;SDS011;37534;39.772;2.718;2023-11-19T14:00:06;2.45;;;1.00;;
51459;SDS011;37534;39.772;2.718;2023-11-19T14:02:41;3.58;;;1.13;;
51459;SDS011;37534;39.772;2.718;2023-11-19T14:05:12;1.77;;;1.05;;
51459;SDS011;37534;39.772;2.718;2023-11-19T14:07:38;2.22;;;1.40;;
51459;SDS011;37534;39.772;2.718;2023-11-19T14:10:05;1.92;;;0.90;;
51459;SDS011;37534;39.772;2.718;2023-11-19T14:12:32;1.13;;;0.90;;
51459;SDS011;37534;39.772;2.718;2023-11-19T14:14:58;1.95;;;1.10;;
51459;SDS011;37534;39.772;2.718;2023-11-19T14:17:25;3.53;;;0.88;;
51459;SDS011;37534;39.772;2.718;2023-11-19T14:19:50;1.77;;;1.17;;
51459;SDS011;37534;39.772;2.718;2023-11-19T14:22:16;5.40;;;1.15;;
51459;SDS011;37534;39.772;2.718;2023-11-19T14:24:42;1.63;;;1.20;;
51459;SDS011;37534;39.772;2.718;2023-11-19T14:27:08;1.23;;;1.02;;
51459;SDS011;37534;39.772;2.718;2023-11-19T14:29:35;3.97;;;1.10;;
51459;SDS011;37534;39.772;2.718;2023-11-19T14:32:01;4.43;;;1.30;;
51459;SDS011;37534;39.772;2.718;2023-11-19T14:34:28;5.68;;;1.77;;
51459;SDS011;37534;39.772;2.718;2023-11-19T14:36:54;7.82;;;1.48;;
51459;SDS011;37534;39.772;2.718;2023-11-19T14:39:20;2.15;;;1.30;;
51459;SDS011;37534;39.772;2.718;2023-11-19T14:41:45;2.42;;;1.38;;
51459;SDS011;37534;39.772;2.718;2023-11-19T14:44:11;5.10;;;1.95;;
51459;SDS011;37534;39.772;2.718;2023-11-19T14:46:36;1.63;;;1.13;;
51459;SDS011;37534;39.772;2.718;2023-11-19T14:49:02;1.23;;;1.08;;
51459;SDS011;37534;39.772;2.718;2023-11-19T14:51:29;2.50;;;1.50;;
51459;SDS011;37534;39.772;2.718;2023-11-19T14:53:55;7.22;;;4.72;;
51459;SDS011;37534;39.772;2.718;2023-11-19T14:56:20;3.78;;;1.55;;
51459;SDS011;37534;39.772;2.718;2023-11-19T14:58:46;5.32;;;2.15;;